sensor_id;sensor_type;location;lat;lon;timestamp;P1;durP1;ratioP1;P2;durP2;ratioP2
9801;SDS011;4940;50.900;4.672;2023-12-14T00:00:54;97.43;;;74.05;;
9801;SDS011;4940;50.900;4.672;2023-12-14T00:03:22;108.10;;;78.70;;
9801;SDS011;4940;50.900;4.672;2023-12-14T00:05:49;104.43;;;75.15;;
9801;SDS011;4940;50.900;4.672;2023-12-14T00:08:16;96.45;;;74.80;;
9801;SDS011;4940;50.900;4.672;2023-12-14T00:10:45;106.30;;;74.82;;
9801;SDS011;4940;50.900;4.672;2023-12-14T00:13:12;104.22;;;71.60;;
9801;SDS011;4940;50.900;4.672;2023-12-14T00:15:40;102.80;;;72.63;;
9801;SDS011;4940;50.900;4.672;2023-12-14T00:18:07;104.18;;;75.68;;
9801;SDS011;4940;50.900;4.672;2023-12-14T00:20:35;94.13;;;68.40;;
9801;SDS011;4940;50.900;4.672;2023-12-14T00:23:02;97.43;;;70.68;;
9801;SDS011;4940;50.900;4.672;2023-12-14T00:25:29;104.40;;;70.38;;
9801;SDS011;4940;50.900;4.672;2023-12-14T00:30:54;103.63;;;72.57;;
9801;SDS011;4940;50.900;4.672;2023-12-14T00:33:22;104.55;;;72.30;;
9801;SDS011;4940;50.900;4.672;2023-12-14T00:35:49;106.95;;;72.15;;
9801;SDS011;4940;50.900;4.672;2023-12-14T00:38:17;96.80;;;73.53;;
9801;SDS011;4940;50.900;4.672;2023-12-14T00:40:44;105.20;;;75.43;;
9801;SDS011;4940;50.900;4.672;2023-12-14T00:43:12;101.32;;;70.25;;
9801;SDS011;4940;50.900;4.672;2023-12-14T00:45:39;110.10;;;74.43;;
9801;SDS011;4940;50.900;4.672;2023-12-14T00:48:08;95.40;;;68.40;;
9801;SDS011;4940;50.900;4.672;2023-12-14T00:50:35;114.65;;;75.88;;
9801;SDS011;4940;50.900;4.672;2023-12-14T00:53:03;97.65;;;67.32;;
9801;SDS011;4940;50.900;4.672;2023-12-14T00:55:30;104.07;;;73.75;;
9801;SDS011;4940;50.900;4.672;2023-12-14T00:58:12;96.43;;;71.13;;
9801;SDS011;4940;50.900;4.672;2023-12-14T01:00:39;104.43;;;68.40;;
9801;SDS011;4940;50.900;4.672;2023-12-14T01:03:08;115.35;;;68.47;;
9801;SDS011;4940;50.900;4.672;2023-12-14T01:05:35;115.03;;;70.22;;
9801;SDS011;4940;50.900;4.672;2023-12-14T01:08:03;110.68;;;71.93;;
9801;SDS011;4940;50.900;4.672;2023-12-14T01:10:31;112.05;;;72.30;;
9801;SDS011;4940;50.900;4.672;2023-12-14T01:12:58;112.38;;;78.70;;
9801;SDS011;4940;50.900;4.672;2023-12-14T01:15:26;109.30;;;81.43;;
9801;SDS011;4940;50.900;4.672;2023-12-14T01:17:53;110.15;;;82.13;;
9801;SDS011;4940;50.900;4.672;2023-12-14T01:20:22;116.60;;;74.22;;
9801;SDS011;4940;50.900;4.672;2023-12-14T01:22:49;105.47;;;74.60;;
9801;SDS011;4940;50.900;4.672;2023-12-14T01:25:17;111.72;;;80.72;;
9801;SDS011;4940;50.900;4.672;2023-12-14T01:27:44;120.22;;;76.82;;
9801;SDS011;4940;50.900;4.672;2023-12-14T01:30:12;106.90;;;80.30;;
9801;SDS011;4940;50.900;4.672;2023-12-14T01:32:40;110.65;;;79.68;;
9801;SDS011;4940;50.900;4.672;2023-12-14T01:35:08;107.60;;;77.80;;
9801;SDS011;4940;50.900;4.672;2023-12-14T01:37:37;104.25;;;74.68;;
9801;SDS011;4940;50.900;4.672;2023-12-14T01:40:05;95.28;;;72.45;;
9801;SDS011;4940;50.900;4.672;2023-12-14T01:42:35;105.82;;;75.45;;
9801;SDS011;4940;50.900;4.672;2023-12-14T01:45:03;103.43;;;68.15;;
9801;SDS011;4940;50.900;4.672;2023-12-14T01:47:31;88.70;;;63.88;;
9801;SDS011;4940;50.900;4.672;2023-12-14T01:49:59;103.05;;;68.50;;
9801;SDS011;4940;50.900;4.672;2023-12-14T01:52:34;96.95;;;64.90;;
9801;SDS011;4940;50.900;4.672;2023-12-14T01:55:05;95.35;;;61.65;;
9801;SDS011;4940;50.900;4.672;2023-12-14T01:57:32;91.97;;;62.90;;
9801;SDS011;4940;50.900;4.672;2023-12-14T02:00:00;93.65;;;59.00;;
9801;SDS011;4940;50.900;4.672;2023-12-14T02:02:27;92.13;;;60.95;;
9801;SDS011;4940;50.900;4.672;2023-12-14T02:04:55;84.85;;;62.28;;
9801;SDS011;4940;50.900;4.672;2023-12-14T02:07:22;83.85;;;61.60;;
9801;SDS011;4940;50.900;4.672;2023-12-14T02:09:50;82.55;;;57.22;;
9801;SDS011;4940;50.900;4.672;2023-12-14T02:12:18;75.07;;;59.10;;
9801;SDS011;4940;50.900;4.672;2023-12-14T02:14:48;75.53;;;56.10;;
9801;SDS011;4940;50.900;4.672;2023-12-14T02:17:15;71.80;;;56.17;;
9801;SDS011;4940;50.900;4.672;2023-12-14T02:19:43;70.13;;;55.63;;
9801;SDS011;4940;50.900;4.672;2023-12-14T02:22:10;75.25;;;56.38;;
9801;SDS011;4940;50.900;4.672;2023-12-14T02:24:39;64.72;;;52.65;;
9801;SDS011;4940;50.900;4.672;2023-12-14T02:27:06;63.33;;;52.85;;
9801;SDS011;4940;50.900;4.672;2023-12-14T02:29:34;65.63;;;52.80;;
9801;SDS011;4940;50.900;4.672;2023-12-14T02:32:01;65.63;;;50.83;;
9801;SDS011;4940;50.900;4.672;2023-12-14T02:34:29;73.43;;;50.85;;
9801;SDS011;4940;50.900;4.672;2023-12-14T02:36:56;71.07;;;54.70;;
9801;SDS011;4940;50.900;4.672;2023-12-14T02:39:23;68.70;;;52.38;;
9801;SDS011;4940;50.900;4.672;2023-12-14T02:41:52;71.60;;;61.92;;
9801;SDS011;4940;50.900;4.672;2023-12-14T02:44:20;69.60;;;59.55;;
9801;SDS011;4940;50.900;4.672;2023-12-14T02:46:47;73.10;;;64.78;;
9801;SDS011;4940;50.900;4.672;2023-12-14T02:49:15;71.60;;;63.30;;
9801;SDS011;4940;50.900;4.672;2023-12-14T02:51:43;70.85;;;63.30;;
9801;SDS011;4940;50.900;4.672;2023-12-14T02:54:15;69.95;;;62.28;;
9801;SDS011;4940;50.900;4.672;2023-12-14T02:56:43;70.38;;;60.45;;
9801;SDS011;4940;50.900;4.672;2023-12-14T02:59:12;67.45;;;58.88;;
9801;SDS011;4940;50.900;4.672;2023-12-14T03:01:39;65.18;;;56.72;;
9801;SDS011;4940;50.900;4.672;2023-12-14T03:04:09;76.18;;;54.88;;
9801;SDS011;4940;50.900;4.672;2023-12-14T03:06:37;65.63;;;53.25;;
9801;SDS011;4940;50.900;4.672;2023-12-14T03:09:04;65.45;;;51.17;;
9801;SDS011;4940;50.900;4.672;2023-12-14T03:11:31;59.90;;;49.53;;
9801;SDS011;4940;50.900;4.672;2023-12-14T03:13:59;55.00;;;47.05;;
9801;SDS011;4940;50.900;4.672;2023-12-14T03:16:28;59.00;;;49.38;;
9801;SDS011;4940;50.900;4.672;2023-12-14T03:18:55;61.35;;;48.03;;
9801;SDS011;4940;50.900;4.672;2023-12-14T03:21:22;59.80;;;49.42;;
9801;SDS011;4940;50.900;4.672;2023-12-14T03:23:50;55.08;;;47.53;;
9801;SDS011;4940;50.900;4.672;2023-12-14T03:26:19;62.50;;;48.25;;
9801;SDS011;4940;50.900;4.672;2023-12-14T03:28:50;65.10;;;47.72;;
9801;SDS011;4940;50.900;4.672;2023-12-14T03:31:18;64.38;;;48.28;;
9801;SDS011;4940;50.900;4.672;2023-12-14T03:33:46;64.68;;;50.85;;
9801;SDS011;4940;50.900;4.672;2023-12-14T03:36:14;60.25;;;50.15;;
9801;SDS011;4940;50.900;4.672;2023-12-14T03:38:41;60.15;;;49.40;;
9801;SDS011;4940;50.900;4.672;2023-12-14T03:41:09;60.85;;;54.22;;
9801;SDS011;4940;50.900;4.672;2023-12-14T03:43:38;60.97;;;54.38;;
9801;SDS011;4940;50.900;4.672;2023-12-14T03:46:06;57.90;;;52.08;;
9801;SDS011;4940;50.900;4.672;2023-12-14T03:48:33;58.10;;;52.22;;
9801;SDS011;4940;50.900;4.672;2023-12-14T03:51:07;56.42;;;50.53;;
9801;SDS011;4940;50.900;4.672;2023-12-14T03:53:35;56.83;;;51.00;;
9801;SDS011;4940;50.900;4.672;2023-12-14T03:56:02;55.38;;;49.67;;
9801;SDS011;4940;50.900;4.672;2023-12-14T03:58:36;55.25;;;49.75;;
9801;SDS011;4940;50.900;4.672;2023-12-14T04:01:04;56.63;;;50.60;;
9801;SDS011;4940;50.900;4.672;2023-12-14T04:03:33;54.00;;;48.72;;
9801;SDS011;4940;50.900;4.672;2023-12-14T04:06:01;57.13;;;51.20;;
9801;SDS011;4940;50.900;4.672;2023-12-14T04:08:43;54.53;;;49.13;;
9801;SDS011;4940;50.900;4.672;2023-12-14T04:11:11;50.15;;;44.10;;
9801;SDS011;4940;50.900;4.672;2023-12-14T04:13:38;49.63;;;44.58;;
9801;SDS011;4940;50.900;4.672;2023-12-14T04:16:08;47.15;;;42.53;;
9801;SDS011;4940;50.900;4.672;2023-12-14T04:18:35;49.00;;;44.38;;
9801;SDS011;4940;50.900;4.672;2023-12-14T04:21:03;48.58;;;43.92;;
9801;SDS011;4940;50.900;4.672;2023-12-14T04:23:31;46.97;;;42.38;;
9801;SDS011;4940;50.900;4.672;2023-12-14T04:26:00;48.58;;;44.00;;
9801;SDS011;4940;50.900;4.672;2023-12-14T04:28:28;47.42;;;42.95;;
9801;SDS011;4940;50.900;4.672;2023-12-14T04:30:55;47.33;;;42.90;;
9801;SDS011;4940;50.900;4.672;2023-12-14T04:33:22;50.17;;;45.40;;
9801;SDS011;4940;50.900;4.672;2023-12-14T04:35:50;47.13;;;42.03;;
9801;SDS011;4940;50.900;4.672;2023-12-14T04:38:18;46.67;;;41.78;;
9801;SDS011;4940;50.900;4.672;2023-12-14T04:40:45;48.97;;;43.88;;
9801;SDS011;4940;50.900;4.672;2023-12-14T04:43:16;47.35;;;42.35;;
9801;SDS011;4940;50.900;4.672;2023-12-14T04:45:48;50.72;;;44.65;;
9801;SDS011;4940;50.900;4.672;2023-12-14T04:48:16;48.72;;;41.70;;
9801;SDS011;4940;50.900;4.672;2023-12-14T04:50:47;47.97;;;42.75;;
9801;SDS011;4940;50.900;4.672;2023-12-14T04:53:15;47.40;;;42.40;;
9801;SDS011;4940;50.900;4.672;2023-12-14T04:55:42;50.00;;;44.97;;
9801;SDS011;4940;50.900;4.672;2023-12-14T05:12:40;48.85;;;44.25;;
9801;SDS011;4940;50.900;4.672;2023-12-14T05:15:12;50.60;;;46.15;;
9801;SDS011;4940;50.900;4.672;2023-12-14T05:17:40;50.90;;;46.10;;
9801;SDS011;4940;50.900;4.672;2023-12-14T05:20:08;50.83;;;45.80;;
9801;SDS011;4940;50.900;4.672;2023-12-14T05:22:36;49.63;;;44.78;;
9801;SDS011;4940;50.900;4.672;2023-12-14T05:25:04;51.78;;;47.05;;
9801;SDS011;4940;50.900;4.672;2023-12-14T05:27:31;54.60;;;49.72;;
9801;SDS011;4940;50.900;4.672;2023-12-14T05:30:00;53.88;;;49.00;;
9801;SDS011;4940;50.900;4.672;2023-12-14T05:32:28;55.25;;;50.25;;
9801;SDS011;4940;50.900;4.672;2023-12-14T05:35:06;53.83;;;48.97;;
9801;SDS011;4940;50.900;4.672;2023-12-14T05:37:34;57.08;;;52.40;;
9801;SDS011;4940;50.900;4.672;2023-12-14T05:40:03;59.55;;;54.72;;
9801;SDS011;4940;50.900;4.672;2023-12-14T05:42:36;57.08;;;51.92;;
9801;SDS011;4940;50.900;4.672;2023-12-14T05:45:06;53.38;;;48.38;;
9801;SDS011;4940;50.900;4.672;2023-12-14T05:47:34;57.47;;;52.25;;
9801;SDS011;4940;50.900;4.672;2023-12-14T05:50:04;53.45;;;48.47;;
9801;SDS011;4940;50.900;4.672;2023-12-14T05:52:46;53.28;;;48.38;;
9801;SDS011;4940;50.900;4.672;2023-12-14T05:55:14;52.25;;;47.35;;
9801;SDS011;4940;50.900;4.672;2023-12-14T05:57:46;50.80;;;46.10;;
9801;SDS011;4940;50.900;4.672;2023-12-14T06:00:17;51.75;;;46.95;;
9801;SDS011;4940;50.900;4.672;2023-12-14T06:02:44;51.80;;;47.10;;
9801;SDS011;4940;50.900;4.672;2023-12-14T06:05:12;49.55;;;44.92;;
9801;SDS011;4940;50.900;4.672;2023-12-14T06:10:09;54.17;;;48.65;;
9801;SDS011;4940;50.900;4.672;2023-12-14T06:12:37;52.40;;;47.67;;
9801;SDS011;4940;50.900;4.672;2023-12-14T06:15:06;55.03;;;49.90;;
9801;SDS011;4940;50.900;4.672;2023-12-14T06:17:35;52.60;;;47.78;;
9801;SDS011;4940;50.900;4.672;2023-12-14T06:20:05;49.33;;;44.47;;
9801;SDS011;4940;50.900;4.672;2023-12-14T06:22:33;48.55;;;43.60;;
9801;SDS011;4940;50.900;4.672;2023-12-14T06:25:01;47.58;;;42.78;;
9801;SDS011;4940;50.900;4.672;2023-12-14T06:27:30;51.80;;;46.90;;
9801;SDS011;4940;50.900;4.672;2023-12-14T06:29:57;52.95;;;47.95;;
9801;SDS011;4940;50.900;4.672;2023-12-14T06:32:26;58.75;;;53.03;;
9801;SDS011;4940;50.900;4.672;2023-12-14T06:34:56;58.58;;;53.40;;
9801;SDS011;4940;50.900;4.672;2023-12-14T06:37:23;51.80;;;46.92;;
9801;SDS011;4940;50.900;4.672;2023-12-14T06:39:51;52.53;;;47.63;;
9801;SDS011;4940;50.900;4.672;2023-12-14T06:42:18;50.90;;;46.58;;
9801;SDS011;4940;50.900;4.672;2023-12-14T06:44:46;54.05;;;49.38;;
9801;SDS011;4940;50.900;4.672;2023-12-14T06:47:13;54.75;;;50.17;;
9801;SDS011;4940;50.900;4.672;2023-12-14T06:49:41;57.05;;;52.15;;
9801;SDS011;4940;50.900;4.672;2023-12-14T06:52:14;51.75;;;47.20;;
9801;SDS011;4940;50.900;4.672;2023-12-14T06:54:45;54.38;;;49.58;;
9801;SDS011;4940;50.900;4.672;2023-12-14T06:57:26;52.58;;;47.78;;
9801;SDS011;4940;50.900;4.672;2023-12-14T06:59:54;54.33;;;49.55;;
9801;SDS011;4940;50.900;4.672;2023-12-14T07:02:22;55.58;;;50.67;;
9801;SDS011;4940;50.900;4.672;2023-12-14T07:04:49;57.78;;;52.67;;
9801;SDS011;4940;50.900;4.672;2023-12-14T07:07:16;56.92;;;52.03;;
9801;SDS011;4940;50.900;4.672;2023-12-14T07:09:44;54.95;;;50.13;;
9801;SDS011;4940;50.900;4.672;2023-12-14T07:12:12;57.17;;;52.15;;
9801;SDS011;4940;50.900;4.672;2023-12-14T07:14:41;62.35;;;57.15;;
9801;SDS011;4940;50.900;4.672;2023-12-14T07:17:08;58.53;;;53.80;;
9801;SDS011;4940;50.900;4.672;2023-12-14T07:19:36;59.38;;;54.20;;
9801;SDS011;4940;50.900;4.672;2023-12-14T07:22:03;51.88;;;47.22;;
9801;SDS011;4940;50.900;4.672;2023-12-14T07:24:31;50.92;;;46.33;;
9801;SDS011;4940;50.900;4.672;2023-12-14T07:26:58;56.50;;;51.50;;
9801;SDS011;4940;50.900;4.672;2023-12-14T07:29:25;50.15;;;45.45;;
9801;SDS011;4940;50.900;4.672;2023-12-14T07:31:54;51.83;;;46.90;;
9801;SDS011;4940;50.900;4.672;2023-12-14T07:34:21;52.10;;;47.17;;
9801;SDS011;4940;50.900;4.672;2023-12-14T07:36:50;52.17;;;47.55;;
9801;SDS011;4940;50.900;4.672;2023-12-14T07:39:17;53.70;;;48.97;;
9801;SDS011;4940;50.900;4.672;2023-12-14T07:41:45;51.67;;;46.80;;
9801;SDS011;4940;50.900;4.672;2023-12-14T07:44:12;50.67;;;45.47;;
9801;SDS011;4940;50.900;4.672;2023-12-14T07:46:39;52.75;;;47.22;;
9801;SDS011;4940;50.900;4.672;2023-12-14T07:49:09;51.78;;;46.33;;
9801;SDS011;4940;50.900;4.672;2023-12-14T07:51:37;52.55;;;47.35;;
9801;SDS011;4940;50.900;4.672;2023-12-14T07:54:04;51.53;;;46.40;;
9801;SDS011;4940;50.900;4.672;2023-12-14T07:56:31;55.85;;;50.55;;
9801;SDS011;4940;50.900;4.672;2023-12-14T07:58:59;55.28;;;49.95;;
9801;SDS011;4940;50.900;4.672;2023-12-14T08:01:26;56.90;;;51.38;;
9801;SDS011;4940;50.900;4.672;2023-12-14T08:03:54;54.05;;;48.67;;
9801;SDS011;4940;50.900;4.672;2023-12-14T08:06:22;51.83;;;46.47;;
9801;SDS011;4940;50.900;4.672;2023-12-14T08:08:49;52.25;;;46.88;;
9801;SDS011;4940;50.900;4.672;2023-12-14T08:11:17;54.95;;;49.35;;
9801;SDS011;4940;50.900;4.672;2023-12-14T08:13:44;58.65;;;52.30;;
9801;SDS011;4940;50.900;4.672;2023-12-14T08:16:12;56.97;;;51.00;;
9801;SDS011;4940;50.900;4.672;2023-12-14T08:18:42;56.42;;;50.53;;
9801;SDS011;4940;50.900;4.672;2023-12-14T08:21:11;57.50;;;51.35;;
9801;SDS011;4940;50.900;4.672;2023-12-14T08:23:40;57.67;;;52.10;;
9801;SDS011;4940;50.900;4.672;2023-12-14T08:26:07;56.80;;;51.28;;
9801;SDS011;4940;50.900;4.672;2023-12-14T08:28:35;54.60;;;49.22;;
9801;SDS011;4940;50.900;4.672;2023-12-14T08:31:03;56.03;;;50.47;;
9801;SDS011;4940;50.900;4.672;2023-12-14T08:33:30;55.72;;;49.83;;
9801;SDS011;4940;50.900;4.672;2023-12-14T08:35:58;52.85;;;47.63;;
9801;SDS011;4940;50.900;4.672;2023-12-14T08:38:25;54.50;;;48.90;;
9801;SDS011;4940;50.900;4.672;2023-12-14T08:40:54;54.63;;;49.10;;
9801;SDS011;4940;50.900;4.672;2023-12-14T08:43:21;53.38;;;47.97;;
9801;SDS011;4940;50.900;4.672;2023-12-14T08:45:48;53.50;;;48.22;;
9801;SDS011;4940;50.900;4.672;2023-12-14T08:48:16;54.80;;;49.25;;
9801;SDS011;4940;50.900;4.672;2023-12-14T08:50:43;51.53;;;46.33;;
9801;SDS011;4940;50.900;4.672;2023-12-14T08:53:11;54.00;;;48.65;;
9801;SDS011;4940;50.900;4.672;2023-12-14T08:55:38;55.90;;;50.40;;
9801;SDS011;4940;50.900;4.672;2023-12-14T08:58:07;57.17;;;51.95;;
9801;SDS011;4940;50.900;4.672;2023-12-14T09:00:34;56.08;;;50.70;;
9801;SDS011;4940;50.900;4.672;2023-12-14T09:03:01;60.17;;;54.35;;
9801;SDS011;4940;50.900;4.672;2023-12-14T09:05:29;57.63;;;51.85;;
9801;SDS011;4940;50.900;4.672;2023-12-14T09:07:56;57.10;;;51.22;;
9801;SDS011;4940;50.900;4.672;2023-12-14T09:10:24;51.20;;;46.38;;
9801;SDS011;4940;50.900;4.672;2023-12-14T09:12:52;53.22;;;48.03;;
9801;SDS011;4940;50.900;4.672;2023-12-14T09:15:20;49.88;;;44.92;;
9801;SDS011;4940;50.900;4.672;2023-12-14T09:17:48;45.53;;;41.10;;
9801;SDS011;4940;50.900;4.672;2023-12-14T09:20:15;43.13;;;38.88;;
9801;SDS011;4940;50.900;4.672;2023-12-14T09:22:43;41.35;;;37.65;;
9801;SDS011;4940;50.900;4.672;2023-12-14T09:25:10;41.88;;;38.28;;
9801;SDS011;4940;50.900;4.672;2023-12-14T09:27:37;38.28;;;34.97;;
9801;SDS011;4940;50.900;4.672;2023-12-14T09:30:05;34.60;;;31.65;;
9801;SDS011;4940;50.900;4.672;2023-12-14T09:32:34;30.40;;;28.00;;
9801;SDS011;4940;50.900;4.672;2023-12-14T09:35:02;29.10;;;26.90;;
9801;SDS011;4940;50.900;4.672;2023-12-14T09:37:29;26.40;;;24.50;;
9801;SDS011;4940;50.900;4.672;2023-12-14T09:39:57;25.33;;;23.52;;
9801;SDS011;4940;50.900;4.672;2023-12-14T09:42:25;26.30;;;24.33;;
9801;SDS011;4940;50.900;4.672;2023-12-14T09:44:52;26.00;;;24.10;;
9801;SDS011;4940;50.900;4.672;2023-12-14T09:47:20;24.65;;;22.73;;
9801;SDS011;4940;50.900;4.672;2023-12-14T09:49:49;25.38;;;23.60;;
9801;SDS011;4940;50.900;4.672;2023-12-14T09:52:18;29.20;;;27.08;;
9801;SDS011;4940;50.900;4.672;2023-12-14T09:54:45;29.52;;;27.48;;
9801;SDS011;4940;50.900;4.672;2023-12-14T09:57:13;28.77;;;26.58;;
9801;SDS011;4940;50.900;4.672;2023-12-14T09:59:40;28.48;;;26.52;;
9801;SDS011;4940;50.900;4.672;2023-12-14T10:02:08;29.42;;;27.23;;
9801;SDS011;4940;50.900;4.672;2023-12-14T10:04:37;30.38;;;28.17;;
9801;SDS011;4940;50.900;4.672;2023-12-14T10:07:05;28.45;;;26.38;;
9801;SDS011;4940;50.900;4.672;2023-12-14T10:09:33;26.83;;;24.88;;
9801;SDS011;4940;50.900;4.672;2023-12-14T10:12:03;24.08;;;22.27;;
9801;SDS011;4940;50.900;4.672;2023-12-14T10:14:31;21.02;;;19.17;;
9801;SDS011;4940;50.900;4.672;2023-12-14T10:16:59;20.50;;;18.98;;
9801;SDS011;4940;50.900;4.672;2023-12-14T10:19:42;20.23;;;18.83;;
9801;SDS011;4940;50.900;4.672;2023-12-14T10:22:11;19.58;;;18.00;;
9801;SDS011;4940;50.900;4.672;2023-12-14T10:24:42;18.67;;;17.33;;
9801;SDS011;4940;50.900;4.672;2023-12-14T10:27:10;19.67;;;17.73;;
9801;SDS011;4940;50.900;4.672;2023-12-14T10:29:38;16.45;;;15.30;;
9801;SDS011;4940;50.900;4.672;2023-12-14T10:32:06;18.40;;;16.95;;
9801;SDS011;4940;50.900;4.672;2023-12-14T10:34:34;17.05;;;15.85;;
9801;SDS011;4940;50.900;4.672;2023-12-14T10:37:01;16.65;;;15.35;;
9801;SDS011;4940;50.900;4.672;2023-12-14T10:39:34;17.98;;;16.25;;
9801;SDS011;4940;50.900;4.672;2023-12-14T10:42:02;17.85;;;16.25;;
9801;SDS011;4940;50.900;4.672;2023-12-14T10:44:30;19.77;;;17.98;;
9801;SDS011;4940;50.900;4.672;2023-12-14T10:47:02;18.15;;;16.35;;
9801;SDS011;4940;50.900;4.672;2023-12-14T10:49:30;18.65;;;17.10;;
9801;SDS011;4940;50.900;4.672;2023-12-14T10:52:00;19.13;;;17.17;;
9801;SDS011;4940;50.900;4.672;2023-12-14T10:54:29;19.58;;;17.98;;
9801;SDS011;4940;50.900;4.672;2023-12-14T10:57:02;20.05;;;18.42;;
9801;SDS011;4940;50.900;4.672;2023-12-14T10:59:31;19.15;;;17.45;;
9801;SDS011;4940;50.900;4.672;2023-12-14T11:01:59;21.40;;;19.45;;
9801;SDS011;4940;50.900;4.672;2023-12-14T11:04:48;18.73;;;17.33;;
9801;SDS011;4940;50.900;4.672;2023-12-14T11:10:10;22.13;;;20.52;;
9801;SDS011;4940;50.900;4.672;2023-12-14T11:12:39;22.45;;;20.75;;
9801;SDS011;4940;50.900;4.672;2023-12-14T11:15:17;25.95;;;23.75;;
9801;SDS011;4940;50.900;4.672;2023-12-14T11:20:49;29.17;;;27.05;;
9801;SDS011;4940;50.900;4.672;2023-12-14T11:23:18;28.75;;;26.80;;
9801;SDS011;4940;50.900;4.672;2023-12-14T11:25:55;27.27;;;25.35;;
9801;SDS011;4940;50.900;4.672;2023-12-14T11:28:25;27.00;;;25.17;;
9801;SDS011;4940;50.900;4.672;2023-12-14T11:30:53;26.13;;;24.27;;
9801;SDS011;4940;50.900;4.672;2023-12-14T11:33:21;23.50;;;21.98;;
9801;SDS011;4940;50.900;4.672;2023-12-14T11:35:49;21.10;;;19.60;;
9801;SDS011;4940;50.900;4.672;2023-12-14T11:38:17;20.88;;;19.17;;
9801;SDS011;4940;50.900;4.672;2023-12-14T11:40:46;18.77;;;17.50;;
9801;SDS011;4940;50.900;4.672;2023-12-14T11:43:14;17.58;;;16.17;;
9801;SDS011;4940;50.900;4.672;2023-12-14T11:45:43;18.13;;;16.30;;
9801;SDS011;4940;50.900;4.672;2023-12-14T11:48:10;19.52;;;18.27;;
9801;SDS011;4940;50.900;4.672;2023-12-14T11:50:38;17.55;;;16.42;;
9801;SDS011;4940;50.900;4.672;2023-12-14T11:53:08;18.00;;;16.60;;
9801;SDS011;4940;50.900;4.672;2023-12-14T11:55:35;18.85;;;17.25;;
9801;SDS011;4940;50.900;4.672;2023-12-14T11:58:04;18.75;;;17.25;;
9801;SDS011;4940;50.900;4.672;2023-12-14T12:00:32;17.33;;;16.00;;
9801;SDS011;4940;50.900;4.672;2023-12-14T12:03:10;16.23;;;14.88;;
9801;SDS011;4940;50.900;4.672;2023-12-14T12:05:38;17.55;;;16.30;;
9801;SDS011;4940;50.900;4.672;2023-12-14T12:08:07;18.15;;;16.85;;
9801;SDS011;4940;50.900;4.672;2023-12-14T12:10:36;19.70;;;17.90;;
9801;SDS011;4940;50.900;4.672;2023-12-14T12:13:04;19.27;;;17.92;;
9801;SDS011;4940;50.900;4.672;2023-12-14T12:15:32;21.38;;;19.83;;
9801;SDS011;4940;50.900;4.672;2023-12-14T12:18:02;20.80;;;19.40;;
9801;SDS011;4940;50.900;4.672;2023-12-14T12:20:31;19.90;;;18.70;;
9801;SDS011;4940;50.900;4.672;2023-12-14T12:23:00;21.15;;;19.75;;
9801;SDS011;4940;50.900;4.672;2023-12-14T12:25:27;21.17;;;19.70;;
9801;SDS011;4940;50.900;4.672;2023-12-14T12:27:54;20.70;;;19.30;;
9801;SDS011;4940;50.900;4.672;2023-12-14T12:30:21;22.17;;;20.75;;
9801;SDS011;4940;50.900;4.672;2023-12-14T12:32:49;21.67;;;20.08;;
9801;SDS011;4940;50.900;4.672;2023-12-14T12:35:17;20.98;;;19.63;;
9801;SDS011;4940;50.900;4.672;2023-12-14T12:37:46;22.00;;;20.60;;
9801;SDS011;4940;50.900;4.672;2023-12-14T12:40:18;22.38;;;20.88;;
9801;SDS011;4940;50.900;4.672;2023-12-14T12:42:46;22.58;;;21.02;;
9801;SDS011;4940;50.900;4.672;2023-12-14T12:45:14;27.20;;;25.42;;
9801;SDS011;4940;50.900;4.672;2023-12-14T12:47:43;29.13;;;27.13;;
9801;SDS011;4940;50.900;4.672;2023-12-14T12:50:10;29.05;;;27.08;;
9801;SDS011;4940;50.900;4.672;2023-12-14T12:52:38;29.20;;;27.35;;
9801;SDS011;4940;50.900;4.672;2023-12-14T12:55:08;30.65;;;28.70;;
9801;SDS011;4940;50.900;4.672;2023-12-14T12:57:36;32.53;;;30.38;;
9801;SDS011;4940;50.900;4.672;2023-12-14T13:00:04;35.03;;;32.83;;
9801;SDS011;4940;50.900;4.672;2023-12-14T13:02:36;38.42;;;35.72;;
9801;SDS011;4940;50.900;4.672;2023-12-14T13:05:04;37.60;;;34.90;;
9801;SDS011;4940;50.900;4.672;2023-12-14T13:07:33;38.33;;;35.72;;
9801;SDS011;4940;50.900;4.672;2023-12-14T13:10:00;38.58;;;35.72;;
9801;SDS011;4940;50.900;4.672;2023-12-14T13:12:30;39.13;;;36.30;;
9801;SDS011;4940;50.900;4.672;2023-12-14T13:14:57;41.22;;;37.95;;
9801;SDS011;4940;50.900;4.672;2023-12-14T13:17:24;44.15;;;40.70;;
9801;SDS011;4940;50.900;4.672;2023-12-14T13:19:51;43.88;;;40.47;;
9801;SDS011;4940;50.900;4.672;2023-12-14T13:22:19;42.20;;;38.92;;
9801;SDS011;4940;50.900;4.672;2023-12-14T13:24:47;44.42;;;40.95;;
9801;SDS011;4940;50.900;4.672;2023-12-14T13:27:15;45.25;;;41.75;;
9801;SDS011;4940;50.900;4.672;2023-12-14T13:29:43;44.75;;;41.10;;
9801;SDS011;4940;50.900;4.672;2023-12-14T13:32:11;43.50;;;39.70;;
9801;SDS011;4940;50.900;4.672;2023-12-14T13:34:38;43.85;;;40.22;;
9801;SDS011;4940;50.900;4.672;2023-12-14T13:37:05;44.78;;;41.15;;
9801;SDS011;4940;50.900;4.672;2023-12-14T13:39:34;44.63;;;41.00;;
9801;SDS011;4940;50.900;4.672;2023-12-14T13:42:03;45.50;;;41.50;;
9801;SDS011;4940;50.900;4.672;2023-12-14T13:44:31;44.88;;;40.80;;
9801;SDS011;4940;50.900;4.672;2023-12-14T13:47:01;45.15;;;41.40;;
9801;SDS011;4940;50.900;4.672;2023-12-14T13:49:29;49.00;;;45.20;;
9801;SDS011;4940;50.900;4.672;2023-12-14T13:51:56;50.05;;;46.13;;
9801;SDS011;4940;50.900;4.672;2023-12-14T13:54:23;48.95;;;44.85;;
9801;SDS011;4940;50.900;4.672;2023-12-14T13:56:51;47.75;;;43.65;;
9801;SDS011;4940;50.900;4.672;2023-12-14T13:59:19;49.58;;;45.38;;
9801;SDS011;4940;50.900;4.672;2023-12-14T14:01:47;49.63;;;45.33;;
9801;SDS011;4940;50.900;4.672;2023-12-14T14:04:17;48.15;;;44.20;;
9801;SDS011;4940;50.900;4.672;2023-12-14T14:06:44;46.67;;;42.58;;
9801;SDS011;4940;50.900;4.672;2023-12-14T14:09:12;47.75;;;43.67;;
9801;SDS011;4940;50.900;4.672;2023-12-14T14:11:39;45.38;;;41.17;;
9801;SDS011;4940;50.900;4.672;2023-12-14T14:14:10;46.85;;;42.92;;
9801;SDS011;4940;50.900;4.672;2023-12-14T14:16:38;45.33;;;41.22;;
9801;SDS011;4940;50.900;4.672;2023-12-14T14:19:06;48.08;;;43.40;;
9801;SDS011;4940;50.900;4.672;2023-12-14T14:21:34;47.08;;;42.47;;
9801;SDS011;4940;50.900;4.672;2023-12-14T14:24:02;47.40;;;43.10;;
9801;SDS011;4940;50.900;4.672;2023-12-14T14:26:30;46.95;;;42.67;;
9801;SDS011;4940;50.900;4.672;2023-12-14T14:28:58;47.55;;;43.45;;
9801;SDS011;4940;50.900;4.672;2023-12-14T14:31:27;46.50;;;41.72;;
9801;SDS011;4940;50.900;4.672;2023-12-14T14:33:57;46.05;;;41.83;;
9801;SDS011;4940;50.900;4.672;2023-12-14T14:36:25;47.95;;;43.75;;
9801;SDS011;4940;50.900;4.672;2023-12-14T14:38:53;48.83;;;44.72;;
9801;SDS011;4940;50.900;4.672;2023-12-14T14:41:22;48.40;;;44.10;;
9801;SDS011;4940;50.900;4.672;2023-12-14T14:43:49;50.05;;;45.65;;
9801;SDS011;4940;50.900;4.672;2023-12-14T14:46:17;48.75;;;44.63;;
9801;SDS011;4940;50.900;4.672;2023-12-14T14:48:44;45.40;;;41.60;;
9801;SDS011;4940;50.900;4.672;2023-12-14T14:51:12;45.13;;;41.20;;
9801;SDS011;4940;50.900;4.672;2023-12-14T14:53:40;40.65;;;37.17;;
9801;SDS011;4940;50.900;4.672;2023-12-14T14:56:10;42.53;;;38.88;;
9801;SDS011;4940;50.900;4.672;2023-12-14T14:58:38;39.17;;;35.75;;
9801;SDS011;4940;50.900;4.672;2023-12-14T15:01:05;40.35;;;37.08;;
9801;SDS011;4940;50.900;4.672;2023-12-14T15:03:33;41.28;;;37.63;;
9801;SDS011;4940;50.900;4.672;2023-12-14T15:06:00;38.88;;;35.67;;
9801;SDS011;4940;50.900;4.672;2023-12-14T15:08:27;42.42;;;39.00;;
9801;SDS011;4940;50.900;4.672;2023-12-14T15:10:55;39.45;;;36.20;;
9801;SDS011;4940;50.900;4.672;2023-12-14T15:13:24;37.72;;;34.45;;
9801;SDS011;4940;50.900;4.672;2023-12-14T15:15:53;38.88;;;35.30;;
9801;SDS011;4940;50.900;4.672;2023-12-14T15:18:21;40.83;;;37.33;;